Decatur, Texas
Current Conditions -  °F | °C
As of 6:55 PM on Tuesday 21 Oct 2014 (Local Time) from KLUD Reporting Station
Clear Clear  
Wind Chill: 23°   Ceiling: Unl
Heat Index: 23°   Visibility: 10mi
Dew Point:   Wind: 0mph
Humidity: 40%   Direction: NA
Pressure: 30.04"   Gusts: NA
Location:  33.23°N, 97.59°W
Report Text: KLUD 212355Z AUTO 00000KT 10SM CLR 23/09 A3004 RMK AO2 T02260085 10271 20225
Loading
Personal Weather Stations






























Interactive Weather Map
Tropical Storm Tracking
New forecast layout! Learn more

10-Day Weather Forecast

Advertisements
Track Severe Weather on mobile